• pl
  • eng

Awiacja
NEWS
last updated: 12.09.2019 14:49<\/div>
Dear users,
We would like to inform you that from September 2nd a test form of the GAFOR forecast is available on our webpage. Please send your comments and suggestions to gafor@imgw.pl that will contribute to product development.
Click on the bold red name to decode a message. 06:31 24.10.2019
  • WIND
  • SIGNIFICANT EURO
  • SIGNIFICANT
  • SIGMET
  • AIRMET
  • TAF FC
  • TAF FT
  • METAR GG30
  • METAR GG00


METAR EPBY 240430Z 13006KT 0600 R26/1600D FG VV002 11/11 Q1015 =

METAR EPGD 240430Z 14010KT 1400 R29/2000N BR OVC001 09/09 Q1016 =

METAR EPKK 240430Z 03005KT 300V050 0100 R25/0500N FG VV001 09/09
Q1016 =

METAR EPKT 240430Z 08004KT 070V150 1400 0300NW R27/2000N BCFG BR
FEW000 07/07 Q1015 =

METAR EPLB 240430Z 11006KT 0250 FG VV001 11/11 Q1017 =

METAR EPLL 240430Z 10006KT 070V140 0300 R25/1000N FG VV001 11/11
Q1015 =

METAR EPMO 240430Z 09006KT 0300 R08/0350N FG OVC000 10/10 Q1017 =

METAR EPPO 240430Z 10009KT 0500 R28/1500 FG VV002 12/12 Q1014 =

METAR EPRA 240430Z NIL=

METAR EPRZ 240430Z 08003KT 3500 BR NSC 08/08 Q1017 =

METAR EPSC 240430Z 13009KT 2300 BR OVC002 11/11 Q1013 =

METAR EPSY 240430Z NIL=

METAR EPWA 240430Z 13007KT 0900 0800W R33/1100N FG VV002 12/12 Q1016
TEMPO 0600=

METAR EPWR 240430Z 13008KT 0300 R29/1100U FG VV001 11/11 Q1013 =

METAR EPZG 240430Z 09004KT 060V120 1900 -DZ BR OVC004 13/13 Q1013 =
 METAR EPKT
Location:EPKT Katowice Pyrzowice
Time:04:30 UTC
Average wind direction:80 °
Mean wind speed:4 knots
Wind direction from:070 °
Wind direction to:150 °
Visibility:1400 meters
Minimum visibility:0300 in direction NW
RVR :27
RVR: 2000 m, no change at last 10 minutes
Occurence:patches fog
 Occurence:mist
First layer of clouds:1/8 do 2/8, base 0 FT
Temperature:7 °C
Dew point:7 °C
QNH:1015 hPa
Awiacja.imgw.pl jest pogodowym serwisem informacyjnym
Instytutu Meteorologii i Gospodarki Wodnej Państwowego Instytutu Badawczego.
Copyright IMGW PIB 2009-2019© Wszelkie prawa zastrzeżone.